MDT,Max TemperatureF,Mean TemperatureF,Min TemperatureF,Max Dew PointF,MeanDew PointF,Min DewpointF,Max Humidity, Mean Humidity, Min Humidity, Max Sea Level PressureIn, Mean Sea Level PressureIn, Min Sea Level PressureIn, Max VisibilityMiles, Mean VisibilityMiles, Min VisibilityMiles, Max Wind SpeedMPH, Mean Wind SpeedMPH, Max Gust SpeedMPH,PrecipitationIn, CloudCover, Events, WindDirDegrees
2011-10-1,87,67,46,41,37,35,66,41,16,29.97,29.90,29.84,10,10,10,22,10,31,0.00,1,,178
2011-10-2,81,70,59,45,40,34,43,31,19,30.04,29.91,29.84,10,10,7,25,9,32,T,2,Rain,220
2011-10-3,84,68,51,45,39,36,64,41,18,30.06,29.89,29.77,10,10,10,24,12,32,0.00,2,,185
2011-10-4,73,62,51,50,46,44,83,62,40,29.88,29.73,29.63,10,10,8,29,13,36,0.01,5,Rain,185
2011-10-5,60,48,36,45,40,34,92,67,42,29.68,29.56,29.45,10,9,4,32,14,41,0.64,6,Rain,194
2011-10-6,41,39,36,36,35,32,92,84,76,29.85,29.68,29.56,10,10,5,26,17,32,0.35,8,Rain,226
2011-10-7,45,41,36,42,38,35,96,91,86,30.10,29.97,29.84,10,9,3,20,12,25,0.55,8,Rain,218
2011-10-8,56,48,39,41,40,37,93,76,59,30.24,30.17,30.10,10,10,10,15,7,18,0.00,7,,232
2011-10-9,59,45,31,40,36,30,100,70,40,30.22,30.11,29.99,10,10,10,9,3,17,0.00,1,,4
2011-10-10,64,49,33,45,38,31,96,66,36,29.98,29.91,29.81,10,10,10,18,9,25,0.04,3,Rain,219
2011-10-11,61,51,41,47,42,35,86,67,47,30.11,29.92,29.83,10,10,6,32,14,43,0.12,5,Rain,226
2011-10-12,61,48,34,37,34,25,89,63,36,30.25,30.20,30.11,10,10,10,21,9,25,0.00,1,,218
2011-10-13,69,52,35,40,33,26,92,57,22,30.18,30.08,29.98,10,10,10,21,8,25,0.00,2,,219
2011-10-14,73,57,40,43,38,34,79,53,27,30.10,30.00,29.94,10,10,10,17,6,20,0.00,2,,231
2011-10-15,72,56,39,44,40,36,86,59,31,29.97,29.94,29.91,10,10,10,24,10,29,0.00,0,,247
2011-10-16,66,54,41,49,43,38,93,68,43,30.12,29.99,29.92,10,10,7,23,10,29,0.27,4,Rain-Thunderstorm,247
2011-10-17,55,46,36,45,39,33,100,77,54,30.43,30.32,30.10,10,10,9,17,7,21,0.01,3,Rain,242
2011-10-18,62,45,27,37,33,27,96,65,33,30.49,30.39,30.26,10,10,10,8,3,10,0.00,0,,53
2011-10-19,61,43,25,40,33,25,100,70,39,30.23,30.09,29.98,10,10,9,14,4,18,0.00,1,,355
2011-10-20,66,48,29,40,35,28,96,64,32,30.17,30.12,30.07,10,10,10,15,5,20,0.00,0,,202
2011-10-21,66,53,39,43,37,34,85,60,34,30.21,30.16,30.09,10,10,10,16,8,21,T,2,Rain,248
2011-10-22,63,53,43,39,36,35,76,56,36,30.29,30.24,30.20,10,10,10,22,13,29,0.00,0,,224
2011-10-23,68,53,37,40,35,32,85,58,30,30.23,30.15,30.01,10,10,10,16,6,20,0.00,0,,219
2011-10-24,62,50,38,42,34,28,76,54,32,30.08,29.96,29.90,10,10,10,22,15,25,0.00,1,,265
2011-10-25,48,37,26,25,22,15,78,58,37,30.30,30.22,30.10,10,10,10,16,6,21,0.00,1,,218
2011-10-26,44,31,17,20,16,14,68,48,28,30.41,30.33,30.27,10,10,10,13,7,15,0.00,0,,123
2011-10-27,50,37,23,21,18,14,69,47,24,30.30,30.24,30.17,10,10,10,20,7,23,0.00,1,,215
2011-10-28,55,37,18,32,18,12,92,57,21,30.43,30.29,30.11,10,10,10,18,5,24,0.00,0,,80
2011-10-29,58,50,41,35,23,10,61,41,20,30.22,30.13,30.06,10,10,10,29,16,36,0.00,2,,221
2011-10-30,62,46,29,36,32,28,85,59,32,30.33,30.24,30.15,10,10,10,17,6,22,0.00,0,,230
2011-10-31,60,49,37,41,34,26,67,59,50,30.12,30.06,30.00,10,10,10,28,14,37,T,5,Rain,236